createdAt,value
2023-02-11T00:01:22.941Z,28.27
2023-02-11T00:06:43.703Z,30.40
2023-02-11T00:12:04.722Z,30.50
2023-02-11T00:17:25.980Z,30.25
2023-02-11T00:22:46.830Z,28.65
2023-02-11T00:28:08.155Z,31.77
2023-02-11T00:33:28.777Z,29.55
2023-02-11T00:38:50.915Z,23.88
2023-02-11T00:44:11.862Z,30.83
2023-02-11T00:49:34.350Z,25.50
2023-02-11T00:54:55.302Z,29.92
2023-02-11T01:00:16.284Z,25.85
2023-02-11T01:05:38.836Z,29.70
2023-02-11T01:11:02.768Z,22.77
2023-02-11T01:16:23.771Z,30.42
2023-02-11T01:21:46.888Z,28.92
2023-02-11T01:27:08.207Z,30.83
2023-02-11T01:32:29.050Z,21.38
2023-02-11T01:37:49.722Z,26.45
2023-02-11T01:43:12.145Z,23.27
2023-02-11T01:48:38.815Z,20.50
2023-02-11T01:54:20.304Z,29.13
2023-02-11T01:59:48.597Z,25.17
2023-02-11T02:05:24.360Z,26.08
2023-02-11T02:10:47.949Z,21.50
2023-02-11T02:16:16.519Z,25.15
2023-02-11T02:22:34.718Z,23.83
2023-02-11T02:28:21.017Z,25.80
2023-02-11T02:33:45.579Z,21.02
2023-02-11T02:39:18.216Z,20.40
2023-02-11T02:44:38.937Z,27.95
2023-02-11T02:49:59.759Z,24.05
2023-02-11T02:55:23.623Z,21.63
2023-02-11T03:01:00.945Z,20.13
2023-02-11T03:06:39.137Z,27.17
2023-02-11T03:12:02.662Z,21.55
2023-02-11T03:17:26.289Z,23.98
2023-02-11T03:22:55.772Z,18.35
2023-02-11T03:28:36.740Z,15.33
2023-02-11T03:34:12.695Z,19.90
2023-02-11T03:39:39.168Z,20.05
2023-02-11T03:45:10.786Z,17.45
2023-02-11T03:50:35.131Z,19.50
2023-02-11T03:56:00.451Z,19.17
2023-02-11T04:01:21.813Z,16.85
2023-02-11T04:06:43.446Z,19.00
2023-02-11T04:12:04.199Z,20.58
2023-02-11T04:17:25.239Z,17.95
2023-02-11T04:22:46.352Z,15.95
2023-02-11T04:28:07.291Z,20.42
2023-02-11T04:33:28.103Z,20.02
2023-02-11T04:38:48.839Z,23.58
2023-02-11T04:44:09.528Z,20.45
2023-02-11T04:49:30.648Z,16.90
2023-02-11T04:54:51.115Z,19.65
2023-02-11T05:00:12.454Z,14.45
2023-02-11T05:05:33.262Z,16.83
2023-02-11T05:10:54.170Z,18.55
2023-02-11T05:16:16.131Z,18.25
2023-02-11T05:21:37.096Z,20.20
2023-02-11T05:26:57.888Z,18.40
2023-02-11T05:32:18.996Z,17.75
2023-02-11T05:37:40.225Z,17.25
2023-02-11T05:43:01.178Z,15.30
2023-02-11T05:48:21.901Z,18.33
2023-02-11T05:53:42.533Z,16.10
2023-02-11T05:59:03.506Z,20.25
2023-02-11T06:04:24.264Z,13.55
2023-02-11T06:09:45.107Z,18.10
2023-02-11T06:15:06.618Z,17.15
2023-02-11T06:20:27.104Z,18.92
2023-02-11T06:25:47.977Z,16.15
2023-02-11T06:31:09.955Z,16.77
2023-02-11T06:36:30.942Z,16.20
2023-02-11T06:41:52.305Z,16.38
2023-02-11T06:47:13.052Z,20.05
2023-02-11T06:52:34.126Z,18.92
2023-02-11T06:57:54.874Z,20.42
2023-02-11T07:03:15.615Z,20.20
2023-02-11T07:08:38.015Z,24.48
2023-02-11T07:14:10.840Z,17.20
2023-02-11T07:19:32.041Z,22.17
2023-02-11T07:24:52.776Z,14.77
2023-02-11T07:30:14.156Z,17.08
2023-02-11T07:35:34.857Z,19.77
2023-02-11T07:41:00.679Z,19.27
2023-02-11T07:46:25.082Z,17.50
2023-02-11T07:51:46.188Z,20.77
2023-02-11T07:57:08.390Z,21.60
2023-02-11T08:02:29.490Z,17.58
2023-02-11T08:07:54.902Z,22.55
2023-02-11T08:13:15.439Z,15.55
2023-02-11T08:18:36.777Z,20.90
2023-02-11T08:23:57.562Z,18.23
2023-02-11T08:29:18.527Z,20.77
2023-02-11T08:34:39.304Z,22.48
2023-02-11T08:40:00.191Z,17.05
2023-02-11T08:45:20.839Z,19.08
2023-02-11T08:50:41.833Z,17.60
2023-02-11T08:56:02.966Z,21.48
2023-02-11T09:01:26.911Z,22.35
2023-02-11T09:06:49.235Z,21.08
2023-02-11T09:12:10.153Z,21.05
2023-02-11T09:17:30.972Z,16.23
2023-02-11T09:22:51.680Z,17.90
2023-02-11T09:28:12.978Z,17.90
2023-02-11T09:33:34.099Z,20.42
2023-02-11T09:38:55.432Z,19.98
2023-02-11T09:44:28.369Z,18.80
2023-02-11T09:49:53.731Z,23.42
2023-02-11T09:55:20.661Z,18.77
2023-02-11T10:00:59.882Z,20.88
2023-02-11T10:06:59.605Z,17.90
2023-02-11T10:12:51.493Z,18.08
2023-02-11T10:18:57.793Z,16.77
2023-02-11T10:24:19.114Z,20.63
2023-02-11T10:29:46.306Z,18.63
2023-02-11T10:35:16.156Z,20.98
2023-02-11T10:40:36.792Z,22.15
2023-02-11T10:45:59.088Z,21.90
2023-02-11T10:51:23.523Z,19.17
2023-02-11T10:56:58.638Z,19.88
2023-02-11T11:02:34.699Z,19.20
2023-02-11T11:08:00.180Z,19.95
2023-02-11T11:13:30.348Z,20.00
2023-02-11T11:19:13.676Z,15.80
2023-02-11T11:24:46.637Z,20.00
2023-02-11T11:30:16.886Z,19.08
2023-02-11T11:41:20.397Z,21.38
2023-02-11T11:46:43.528Z,19.38
2023-02-11T11:52:22.854Z,17.38
2023-02-11T11:57:44.020Z,21.00
2023-02-11T12:03:37.398Z,18.33
2023-02-11T12:09:30.893Z,20.63
2023-02-11T12:15:30.552Z,21.95
2023-02-11T12:21:16.183Z,18.55
2023-02-11T12:26:49.670Z,21.90
2023-02-11T12:32:21.558Z,19.75
2023-02-11T12:38:18.897Z,23.08
2023-02-11T12:43:44.587Z,18.73
2023-02-11T12:49:26.499Z,25.40
2023-02-11T12:54:59.446Z,18.42
2023-02-11T13:00:25.139Z,22.05
2023-02-11T13:05:49.623Z,22.05
2023-02-11T13:11:33.622Z,20.63
2023-02-11T13:16:57.112Z,21.13
2023-02-11T13:22:31.836Z,21.63
2023-02-11T13:28:23.535Z,21.92
2023-02-11T13:33:45.876Z,19.85
2023-02-11T13:39:07.118Z,22.80
2023-02-11T13:44:28.505Z,18.38
2023-02-11T13:49:53.465Z,20.17
2023-02-11T13:55:14.007Z,20.38
2023-02-11T14:00:34.859Z,21.05
2023-02-11T14:06:30.724Z,20.58
2023-02-11T14:11:56.203Z,17.42
2023-02-11T14:17:18.993Z,20.13
2023-02-11T14:22:47.826Z,21.50
2023-02-11T14:28:32.947Z,17.52
2023-02-11T14:34:13.359Z,18.15
2023-02-11T14:39:52.747Z,15.07
2023-02-11T14:45:24.892Z,19.60
2023-02-11T14:50:52.874Z,17.67
2023-02-11T14:56:26.394Z,18.75
2023-02-11T15:01:54.412Z,15.60
2023-02-11T15:07:16.084Z,15.27
2023-02-11T15:12:38.251Z,16.48
2023-02-11T15:18:02.830Z,14.15
2023-02-11T15:23:28.973Z,19.60
2023-02-11T15:28:52.145Z,14.20
2023-02-11T15:34:12.693Z,18.27
2023-02-11T15:39:37.993Z,16.45
2023-02-11T15:45:15.676Z,16.45
2023-02-11T15:50:40.552Z,17.65
2023-02-11T15:56:19.337Z,16.25
2023-02-11T16:01:41.037Z,18.88
2023-02-11T16:07:01.776Z,17.55
2023-02-11T16:12:27.057Z,21.33
2023-02-11T16:17:48.534Z,15.75
2023-02-11T16:23:22.057Z,17.90
2023-02-11T16:28:43.009Z,12.05
2023-02-11T16:34:11.597Z,20.02
2023-02-11T16:39:33.374Z,15.77
2023-02-11T16:44:54.519Z,14.05
2023-02-11T16:50:23.984Z,23.70
2023-02-11T16:55:44.692Z,17.27
2023-02-11T17:01:06.925Z,14.10
2023-02-11T17:06:28.738Z,18.42
2023-02-11T17:11:50.229Z,12.82
2023-02-11T17:17:13.592Z,14.45
2023-02-11T17:22:34.329Z,15.13
2023-02-11T17:27:55.133Z,14.88
2023-02-11T17:33:16.217Z,14.93
2023-02-11T17:38:38.021Z,13.73
2023-02-11T17:43:59.687Z,15.32
2023-02-11T17:49:20.471Z,15.73
2023-02-11T17:54:41.294Z,17.02
2023-02-11T18:00:02.159Z,15.25
2023-02-11T18:05:36.295Z,16.90
2023-02-11T18:10:57.069Z,17.10
2023-02-11T18:16:17.951Z,14.48
2023-02-11T18:21:39.342Z,15.95
2023-02-11T18:27:00.069Z,19.02
2023-02-11T18:32:20.903Z,14.48
2023-02-11T18:37:43.129Z,14.95
2023-02-11T18:43:04.099Z,15.38
2023-02-11T18:48:27.133Z,15.18
2023-02-11T18:53:48.212Z,14.20
2023-02-11T18:59:08.870Z,13.85
2023-02-11T19:04:29.757Z,15.40
2023-02-11T19:09:50.865Z,15.18
2023-02-11T19:15:11.694Z,17.88
2023-02-11T19:20:33.516Z,14.13
2023-02-11T19:25:54.406Z,14.90
2023-02-11T19:31:15.866Z,15.63
2023-02-11T19:36:37.799Z,15.20
2023-02-11T19:41:59.115Z,14.30
2023-02-11T19:47:20.108Z,18.48
2023-02-11T19:52:41.173Z,13.85
2023-02-11T19:58:01.964Z,17.38
2023-02-11T20:03:23.520Z,14.80
2023-02-11T20:08:44.464Z,16.92
2023-02-11T20:14:06.856Z,16.90
2023-02-11T20:19:28.036Z,17.67
2023-02-11T20:24:49.012Z,15.20
2023-02-11T20:30:11.736Z,15.02
2023-02-11T20:35:32.744Z,18.60
2023-02-11T20:40:54.017Z,19.25
2023-02-11T20:46:17.007Z,19.20
2023-02-11T20:51:39.625Z,19.35
2023-02-11T20:57:00.762Z,19.73
2023-02-11T21:02:24.369Z,20.40
2023-02-11T21:07:46.523Z,18.10
2023-02-11T21:13:07.101Z,19.25
2023-02-11T21:18:27.831Z,15.05
2023-02-11T21:23:48.549Z,20.10
2023-02-11T21:29:10.031Z,17.25
2023-02-11T21:34:31.121Z,18.10
2023-02-11T21:39:52.031Z,19.55
2023-02-11T21:45:12.655Z,17.40
2023-02-11T21:50:33.439Z,17.60
2023-02-11T21:56:06.222Z,19.73
2023-02-11T22:01:30.388Z,14.23
2023-02-11T22:06:51.126Z,17.27
2023-02-11T22:12:12.006Z,21.90
2023-02-11T22:17:34.781Z,20.00
2023-02-11T22:22:55.446Z,14.70
2023-02-11T22:28:16.225Z,18.52
2023-02-11T22:33:37.040Z,19.63
2023-02-11T22:39:06.539Z,18.67
2023-02-11T22:44:27.421Z,15.70
2023-02-11T22:49:48.288Z,17.48
2023-02-11T22:55:09.801Z,16.67
2023-02-11T23:00:36.277Z,19.25
2023-02-11T23:05:58.741Z,17.15
2023-02-11T23:11:26.822Z,16.77
2023-02-11T23:16:50.020Z,15.82
2023-02-11T23:22:10.721Z,20.85
2023-02-11T23:27:31.680Z,19.73
2023-02-11T23:32:52.881Z,19.42
2023-02-11T23:38:13.627Z,16.30
2023-02-11T23:43:34.325Z,20.75
2023-02-11T23:48:55.654Z,19.77
2023-02-11T23:54:16.737Z,18.92
2023-02-11T23:59:37.577Z,21.13
